sensor_id;sensor_type;location;lat;lon;timestamp;temperature;humidity
71563;DHT22;59391;52.504;13.438;2023-02-15T00:02:18;6.70;63.40
71563;DHT22;59391;52.504;13.438;2023-02-15T00:04:45;6.70;63.50
71563;DHT22;59391;52.504;13.438;2023-02-15T00:07:17;6.70;63.50
71563;DHT22;59391;52.504;13.438;2023-02-15T00:09:45;6.60;63.60
71563;DHT22;59391;52.504;13.438;2023-02-15T00:12:14;6.60;63.70
71563;DHT22;59391;52.504;13.438;2023-02-15T00:14:40;6.50;63.70
71563;DHT22;59391;52.504;13.438;2023-02-15T00:17:07;6.50;63.80
71563;DHT22;59391;52.504;13.438;2023-02-15T00:19:35;6.50;63.80
71563;DHT22;59391;52.504;13.438;2023-02-15T00:22:00;6.50;63.80
71563;DHT22;59391;52.504;13.438;2023-02-15T00:24:26;6.50;63.90
71563;DHT22;59391;52.504;13.438;2023-02-15T00:26:52;6.40;64.10
71563;DHT22;59391;52.504;13.438;2023-02-15T00:29:19;6.40;64.20
71563;DHT22;59391;52.504;13.438;2023-02-15T00:31:44;6.30;64.20
71563;DHT22;59391;52.504;13.438;2023-02-15T00:36:46;6.30;64.50
71563;DHT22;59391;52.504;13.438;2023-02-15T00:39:12;6.30;64.60
71563;DHT22;59391;52.504;13.438;2023-02-15T00:41:38;6.20;64.50
71563;DHT22;59391;52.504;13.438;2023-02-15T00:44:04;6.20;64.70
71563;DHT22;59391;52.504;13.438;2023-02-15T00:46:31;6.20;64.70
71563;DHT22;59391;52.504;13.438;2023-02-15T00:48:57;6.20;64.80
71563;DHT22;59391;52.504;13.438;2023-02-15T00:51:23;6.10;64.70
71563;DHT22;59391;52.504;13.438;2023-02-15T00:53:49;6.10;64.70
71563;DHT22;59391;52.504;13.438;2023-02-15T00:56:15;6.10;64.70
71563;DHT22;59391;52.504;13.438;2023-02-15T00:58:41;6.10;64.70
71563;DHT22;59391;52.504;13.438;2023-02-15T01:01:12;6.10;64.70
71563;DHT22;59391;52.504;13.438;2023-02-15T01:03:40;6.10;64.80
71563;DHT22;59391;52.504;13.438;2023-02-15T01:06:07;6.00;64.90
71563;DHT22;59391;52.504;13.438;2023-02-15T01:08:33;6.00;64.90
71563;DHT22;59391;52.504;13.438;2023-02-15T01:11:11;6.00;65.00
71563;DHT22;59391;52.504;13.438;2023-02-15T01:13:39;6.00;65.10
71563;DHT22;59391;52.504;13.438;2023-02-15T01:16:06;5.90;65.00
71563;DHT22;59391;52.504;13.438;2023-02-15T01:18:34;6.00;65.10
71563;DHT22;59391;52.504;13.438;2023-02-15T01:21:15;5.90;65.10
71563;DHT22;59391;52.504;13.438;2023-02-15T01:23:42;5.90;65.10
71563;DHT22;59391;52.504;13.438;2023-02-15T01:26:09;5.90;65.20
71563;DHT22;59391;52.504;13.438;2023-02-15T01:28:35;5.80;65.40
71563;DHT22;59391;52.504;13.438;2023-02-15T01:31:05;5.70;65.50
71563;DHT22;59391;52.504;13.438;2023-02-15T01:33:33;5.70;65.60
71563;DHT22;59391;52.504;13.438;2023-02-15T01:35:58;5.70;65.80
71563;DHT22;59391;52.504;13.438;2023-02-15T01:38:24;5.60;66.10
71563;DHT22;59391;52.504;13.438;2023-02-15T01:40:53;5.60;66.10
71563;DHT22;59391;52.504;13.438;2023-02-15T01:43:42;5.60;66.10
71563;DHT22;59391;52.504;13.438;2023-02-15T01:46:11;5.60;66.20
71563;DHT22;59391;52.504;13.438;2023-02-15T01:48:45;5.60;66.20
71563;DHT22;59391;52.504;13.438;2023-02-15T01:51:19;5.50;66.40
71563;DHT22;59391;52.504;13.438;2023-02-15T01:53:53;5.50;66.30
71563;DHT22;59391;52.504;13.438;2023-02-15T01:56:30;5.50;66.40
71563;DHT22;59391;52.504;13.438;2023-02-15T01:59:11;5.50;66.40
71563;DHT22;59391;52.504;13.438;2023-02-15T02:01:45;5.50;66.60
71563;DHT22;59391;52.504;13.438;2023-02-15T02:04:17;5.40;66.90
71563;DHT22;59391;52.504;13.438;2023-02-15T02:06:49;5.40;67.00
71563;DHT22;59391;52.504;13.438;2023-02-15T02:09:16;5.40;67.20
71563;DHT22;59391;52.504;13.438;2023-02-15T02:11:45;5.30;67.50
71563;DHT22;59391;52.504;13.438;2023-02-15T02:14:12;5.30;67.60
71563;DHT22;59391;52.504;13.438;2023-02-15T02:17:10;5.30;67.70
71563;DHT22;59391;52.504;13.438;2023-02-15T02:20:02;5.30;67.80
71563;DHT22;59391;52.504;13.438;2023-02-15T02:32:52;5.20;67.90
71563;DHT22;59391;52.504;13.438;2023-02-15T02:41:46;5.10;67.90
71563;DHT22;59391;52.504;13.438;2023-02-15T02:44:43;5.00;68.10
71563;DHT22;59391;52.504;13.438;2023-02-15T02:47:23;5.00;68.50
71563;DHT22;59391;52.504;13.438;2023-02-15T02:50:00;4.90;68.60
71563;DHT22;59391;52.504;13.438;2023-02-15T02:55:07;4.90;68.40
71563;DHT22;59391;52.504;13.438;2023-02-15T02:58:29;4.90;68.60
71563;DHT22;59391;52.504;13.438;2023-02-15T03:00:54;4.80;68.80
71563;DHT22;59391;52.504;13.438;2023-02-15T03:03:43;4.80;68.80
71563;DHT22;59391;52.504;13.438;2023-02-15T03:06:24;4.80;68.90
71563;DHT22;59391;52.504;13.438;2023-02-15T03:09:10;4.80;68.70
71563;DHT22;59391;52.504;13.438;2023-02-15T03:11:41;4.80;68.70
71563;DHT22;59391;52.504;13.438;2023-02-15T03:14:08;4.70;68.60
71563;DHT22;59391;52.504;13.438;2023-02-15T03:16:35;4.70;68.60
71563;DHT22;59391;52.504;13.438;2023-02-15T03:19:10;4.70;68.50
71563;DHT22;59391;52.504;13.438;2023-02-15T03:21:48;4.70;68.50
71563;DHT22;59391;52.504;13.438;2023-02-15T03:24:26;4.60;68.50
71563;DHT22;59391;52.504;13.438;2023-02-15T03:26:57;4.60;68.40
71563;DHT22;59391;52.504;13.438;2023-02-15T03:29:26;4.60;68.40
71563;DHT22;59391;52.504;13.438;2023-02-15T03:32:03;4.50;68.50
71563;DHT22;59391;52.504;13.438;2023-02-15T03:34:32;4.50;68.50
71563;DHT22;59391;52.504;13.438;2023-02-15T03:40:14;4.40;68.70
71563;DHT22;59391;52.504;13.438;2023-02-15T03:43:12;4.40;68.70
71563;DHT22;59391;52.504;13.438;2023-02-15T03:45:47;4.30;68.80
71563;DHT22;59391;52.504;13.438;2023-02-15T03:48:36;4.30;68.80
71563;DHT22;59391;52.504;13.438;2023-02-15T03:51:08;4.20;68.90
71563;DHT22;59391;52.504;13.438;2023-02-15T03:54:08;4.20;68.80
71563;DHT22;59391;52.504;13.438;2023-02-15T03:56:40;4.10;68.80
71563;DHT22;59391;52.504;13.438;2023-02-15T03:59:07;4.10;68.80
71563;DHT22;59391;52.504;13.438;2023-02-15T04:02:06;4.10;68.80
71563;DHT22;59391;52.504;13.438;2023-02-15T04:04:47;4.00;68.90
71563;DHT22;59391;52.504;13.438;2023-02-15T04:07:14;4.00;68.80
71563;DHT22;59391;52.504;13.438;2023-02-15T04:09:40;3.90;68.80
71563;DHT22;59391;52.504;13.438;2023-02-15T04:12:24;3.90;68.80
71563;DHT22;59391;52.504;13.438;2023-02-15T04:14:50;3.90;68.80
71563;DHT22;59391;52.504;13.438;2023-02-15T04:17:36;3.80;68.80
71563;DHT22;59391;52.504;13.438;2023-02-15T04:20:03;3.80;68.90
71563;DHT22;59391;52.504;13.438;2023-02-15T04:22:47;3.70;68.90
71563;DHT22;59391;52.504;13.438;2023-02-15T04:25:31;3.70;68.90
71563;DHT22;59391;52.504;13.438;2023-02-15T04:27:56;3.70;68.80
71563;DHT22;59391;52.504;13.438;2023-02-15T04:30:24;3.70;68.70
71563;DHT22;59391;52.504;13.438;2023-02-15T04:32:51;3.60;68.70
71563;DHT22;59391;52.504;13.438;2023-02-15T04:35:16;3.60;68.50
71563;DHT22;59391;52.504;13.438;2023-02-15T04:37:43;3.50;68.60
71563;DHT22;59391;52.504;13.438;2023-02-15T04:40:11;3.50;68.60
71563;DHT22;59391;52.504;13.438;2023-02-15T04:42:38;3.50;68.60
71563;DHT22;59391;52.504;13.438;2023-02-15T04:45:05;3.50;68.60
71563;DHT22;59391;52.504;13.438;2023-02-15T04:47:31;3.40;68.50
71563;DHT22;59391;52.504;13.438;2023-02-15T04:49:57;3.40;68.30
71563;DHT22;59391;52.504;13.438;2023-02-15T04:52:23;3.30;68.40
71563;DHT22;59391;52.504;13.438;2023-02-15T04:54:49;3.30;68.40
71563;DHT22;59391;52.504;13.438;2023-02-15T04:57:14;3.20;68.60
71563;DHT22;59391;52.504;13.438;2023-02-15T04:59:40;3.20;68.70
71563;DHT22;59391;52.504;13.438;2023-02-15T05:02:05;3.10;68.80
71563;DHT22;59391;52.504;13.438;2023-02-15T05:04:31;3.10;69.00
71563;DHT22;59391;52.504;13.438;2023-02-15T05:06:57;3.10;69.10
71563;DHT22;59391;52.504;13.438;2023-02-15T05:09:22;3.00;69.10
71563;DHT22;59391;52.504;13.438;2023-02-15T05:11:48;3.00;69.20
71563;DHT22;59391;52.504;13.438;2023-02-15T05:14:14;3.00;69.40
71563;DHT22;59391;52.504;13.438;2023-02-15T05:16:39;2.90;69.50
71563;DHT22;59391;52.504;13.438;2023-02-15T05:19:05;2.90;69.70
71563;DHT22;59391;52.504;13.438;2023-02-15T05:21:31;2.80;69.90
71563;DHT22;59391;52.504;13.438;2023-02-15T05:23:58;2.80;70.10
71563;DHT22;59391;52.504;13.438;2023-02-15T05:26:24;2.80;70.30
71563;DHT22;59391;52.504;13.438;2023-02-15T05:29:09;2.80;70.40
71563;DHT22;59391;52.504;13.438;2023-02-15T05:31:36;2.70;70.60
71563;DHT22;59391;52.504;13.438;2023-02-15T05:34:01;2.70;70.70
71563;DHT22;59391;52.504;13.438;2023-02-15T05:36:27;2.70;70.70
71563;DHT22;59391;52.504;13.438;2023-02-15T05:38:54;2.70;70.90
71563;DHT22;59391;52.504;13.438;2023-02-15T05:41:20;2.70;70.80
71563;DHT22;59391;52.504;13.438;2023-02-15T05:43:46;2.70;70.80
71563;DHT22;59391;52.504;13.438;2023-02-15T05:46:12;2.70;70.90
71563;DHT22;59391;52.504;13.438;2023-02-15T05:48:38;2.70;71.00
71563;DHT22;59391;52.504;13.438;2023-02-15T05:51:05;2.60;71.20
71563;DHT22;59391;52.504;13.438;2023-02-15T05:53:35;2.60;71.30
71563;DHT22;59391;52.504;13.438;2023-02-15T05:56:04;2.60;71.30
71563;DHT22;59391;52.504;13.438;2023-02-15T05:58:36;2.60;71.50
71563;DHT22;59391;52.504;13.438;2023-02-15T06:01:14;2.60;71.50
71563;DHT22;59391;52.504;13.438;2023-02-15T06:03:42;2.50;71.60
71563;DHT22;59391;52.504;13.438;2023-02-15T06:06:08;2.50;71.60
71563;DHT22;59391;52.504;13.438;2023-02-15T06:08:35;2.50;71.70
71563;DHT22;59391;52.504;13.438;2023-02-15T06:11:02;2.40;71.90
71563;DHT22;59391;52.504;13.438;2023-02-15T06:13:28;2.40;72.00
71563;DHT22;59391;52.504;13.438;2023-02-15T06:15:54;2.40;72.00
71563;DHT22;59391;52.504;13.438;2023-02-15T06:18:19;2.40;72.10
71563;DHT22;59391;52.504;13.438;2023-02-15T06:20:46;2.40;72.40
71563;DHT22;59391;52.504;13.438;2023-02-15T06:23:12;2.40;72.40
71563;DHT22;59391;52.504;13.438;2023-02-15T06:25:38;2.40;72.40
71563;DHT22;59391;52.504;13.438;2023-02-15T06:28:04;2.40;72.50
71563;DHT22;59391;52.504;13.438;2023-02-15T06:30:29;2.40;72.60
71563;DHT22;59391;52.504;13.438;2023-02-15T06:32:55;2.40;72.50
71563;DHT22;59391;52.504;13.438;2023-02-15T06:35:21;2.40;72.30
71563;DHT22;59391;52.504;13.438;2023-02-15T06:37:47;2.40;72.20
71563;DHT22;59391;52.504;13.438;2023-02-15T06:40:13;2.40;72.20
71563;DHT22;59391;52.504;13.438;2023-02-15T06:42:39;2.30;72.20
71563;DHT22;59391;52.504;13.438;2023-02-15T06:45:06;2.40;72.30
71563;DHT22;59391;52.504;13.438;2023-02-15T06:47:32;2.30;72.70
71563;DHT22;59391;52.504;13.438;2023-02-15T06:49:57;2.30;72.80
71563;DHT22;59391;52.504;13.438;2023-02-15T06:52:23;2.40;72.90
71563;DHT22;59391;52.504;13.438;2023-02-15T06:54:50;2.40;72.90
71563;DHT22;59391;52.504;13.438;2023-02-15T06:57:16;2.40;73.00
71563;DHT22;59391;52.504;13.438;2023-02-15T06:59:41;2.40;72.90
71563;DHT22;59391;52.504;13.438;2023-02-15T07:02:08;2.30;73.00
71563;DHT22;59391;52.504;13.438;2023-02-15T07:04:36;2.30;73.10
71563;DHT22;59391;52.504;13.438;2023-02-15T07:07:02;2.30;73.20
71563;DHT22;59391;52.504;13.438;2023-02-15T07:09:28;2.30;73.20
71563;DHT22;59391;52.504;13.438;2023-02-15T07:11:53;2.20;73.40
71563;DHT22;59391;52.504;13.438;2023-02-15T07:14:37;2.20;73.40
71563;DHT22;59391;52.504;13.438;2023-02-15T07:17:03;2.20;73.60
71563;DHT22;59391;52.504;13.438;2023-02-15T07:19:29;2.20;73.80
71563;DHT22;59391;52.504;13.438;2023-02-15T07:21:54;2.30;73.90
71563;DHT22;59391;52.504;13.438;2023-02-15T07:24:20;2.20;73.90
71563;DHT22;59391;52.504;13.438;2023-02-15T07:26:45;2.20;73.90
71563;DHT22;59391;52.504;13.438;2023-02-15T07:29:11;2.30;73.80
71563;DHT22;59391;52.504;13.438;2023-02-15T07:31:36;2.30;73.80
71563;DHT22;59391;52.504;13.438;2023-02-15T07:34:02;2.30;73.60
71563;DHT22;59391;52.504;13.438;2023-02-15T07:36:28;2.30;73.60
71563;DHT22;59391;52.504;13.438;2023-02-15T07:38:53;2.20;73.50
71563;DHT22;59391;52.504;13.438;2023-02-15T07:41:19;2.30;73.50
71563;DHT22;59391;52.504;13.438;2023-02-15T07:43:45;2.30;73.50
71563;DHT22;59391;52.504;13.438;2023-02-15T07:46:13;2.30;73.40
71563;DHT22;59391;52.504;13.438;2023-02-15T07:48:41;2.30;73.30
71563;DHT22;59391;52.504;13.438;2023-02-15T07:51:10;2.30;73.20
71563;DHT22;59391;52.504;13.438;2023-02-15T07:53:37;2.30;73.20
71563;DHT22;59391;52.504;13.438;2023-02-15T07:56:07;2.30;73.30
71563;DHT22;59391;52.504;13.438;2023-02-15T07:58:36;2.30;73.10
71563;DHT22;59391;52.504;13.438;2023-02-15T08:01:19;2.30;73.30
71563;DHT22;59391;52.504;13.438;2023-02-15T08:03:49;2.40;73.30
71563;DHT22;59391;52.504;13.438;2023-02-15T08:06:16;2.30;73.30
71563;DHT22;59391;52.504;13.438;2023-02-15T08:08:41;2.40;73.30
71563;DHT22;59391;52.504;13.438;2023-02-15T08:11:23;2.40;73.40
71563;DHT22;59391;52.504;13.438;2023-02-15T08:14:12;2.40;73.50
71563;DHT22;59391;52.504;13.438;2023-02-15T08:16:42;2.50;73.60
71563;DHT22;59391;52.504;13.438;2023-02-15T08:19:11;2.50;73.60
71563;DHT22;59391;52.504;13.438;2023-02-15T08:21:46;2.50;73.50
71563;DHT22;59391;52.504;13.438;2023-02-15T08:24:15;2.50;73.40
71563;DHT22;59391;52.504;13.438;2023-02-15T08:26:43;2.50;73.50
71563;DHT22;59391;52.504;13.438;2023-02-15T08:29:12;2.60;73.70
71563;DHT22;59391;52.504;13.438;2023-02-15T08:31:39;2.60;73.70
71563;DHT22;59391;52.504;13.438;2023-02-15T08:34:07;2.70;73.70
71563;DHT22;59391;52.504;13.438;2023-02-15T08:36:34;2.60;73.70
71563;DHT22;59391;52.504;13.438;2023-02-15T08:39:02;2.70;73.70
71563;DHT22;59391;52.504;13.438;2023-02-15T08:41:31;2.70;73.80
71563;DHT22;59391;52.504;13.438;2023-02-15T08:44:04;2.80;73.90
71563;DHT22;59391;52.504;13.438;2023-02-15T08:46:33;2.80;73.80
71563;DHT22;59391;52.504;13.438;2023-02-15T08:49:01;2.90;73.70
71563;DHT22;59391;52.504;13.438;2023-02-15T08:51:30;2.90;73.30
71563;DHT22;59391;52.504;13.438;2023-02-15T08:53:59;2.90;73.20
71563;DHT22;59391;52.504;13.438;2023-02-15T08:56:30;2.90;73.10
71563;DHT22;59391;52.504;13.438;2023-02-15T08:58:58;3.00;73.20
71563;DHT22;59391;52.504;13.438;2023-02-15T09:01:27;3.10;73.20
71563;DHT22;59391;52.504;13.438;2023-02-15T09:03:59;3.10;73.30
71563;DHT22;59391;52.504;13.438;2023-02-15T09:06:29;3.20;73.40
71563;DHT22;59391;52.504;13.438;2023-02-15T09:08:55;3.20;72.60
71563;DHT22;59391;52.504;13.438;2023-02-15T09:11:27;3.20;72.60
71563;DHT22;59391;52.504;13.438;2023-02-15T09:13:56;3.30;72.30
71563;DHT22;59391;52.504;13.438;2023-02-15T09:16:26;3.40;72.40
71563;DHT22;59391;52.504;13.438;2023-02-15T09:18:54;3.40;72.40
71563;DHT22;59391;52.504;13.438;2023-02-15T09:21:22;3.50;72.50
71563;DHT22;59391;52.504;13.438;2023-02-15T09:23:51;3.60;72.60
71563;DHT22;59391;52.504;13.438;2023-02-15T09:26:21;3.70;72.40
71563;DHT22;59391;52.504;13.438;2023-02-15T09:28:52;3.70;72.10
71563;DHT22;59391;52.504;13.438;2023-02-15T09:31:22;3.80;71.90
71563;DHT22;59391;52.504;13.438;2023-02-15T09:33:50;3.90;71.50
71563;DHT22;59391;52.504;13.438;2023-02-15T09:36:27;4.00;71.50
71563;DHT22;59391;52.504;13.438;2023-02-15T09:39:09;4.00;71.00
71563;DHT22;59391;52.504;13.438;2023-02-15T09:57:36;4.50;69.30
71563;DHT22;59391;52.504;13.438;2023-02-15T10:00:28;4.60;69.30
71563;DHT22;59391;52.504;13.438;2023-02-15T10:03:38;4.70;69.00
71563;DHT22;59391;52.504;13.438;2023-02-15T10:06:30;4.80;68.40
71563;DHT22;59391;52.504;13.438;2023-02-15T10:09:46;4.90;68.40
71563;DHT22;59391;52.504;13.438;2023-02-15T10:12:47;5.00;68.10
71563;DHT22;59391;52.504;13.438;2023-02-15T10:15:28;5.20;67.60
71563;DHT22;59391;52.504;13.438;2023-02-15T10:18:25;5.30;66.90
71563;DHT22;59391;52.504;13.438;2023-02-15T10:21:29;5.40;66.50
71563;DHT22;59391;52.504;13.438;2023-02-15T10:27:07;5.80;66.30
71563;DHT22;59391;52.504;13.438;2023-02-15T10:29:43;6.00;65.10
71563;DHT22;59391;52.504;13.438;2023-02-15T10:32:25;6.20;65.30
71563;DHT22;59391;52.504;13.438;2023-02-15T10:35:01;6.50;63.90
71563;DHT22;59391;52.504;13.438;2023-02-15T10:38:24;6.80;63.30
71563;DHT22;59391;52.504;13.438;2023-02-15T10:41:14;7.20;64.10
71563;DHT22;59391;52.504;13.438;2023-02-15T10:43:51;7.60;61.10
71563;DHT22;59391;52.504;13.438;2023-02-15T10:46:49;8.00;60.70
71563;DHT22;59391;52.504;13.438;2023-02-15T10:52:36;8.70;56.60
71563;DHT22;59391;52.504;13.438;2023-02-15T10:55:24;9.10;54.80
71563;DHT22;59391;52.504;13.438;2023-02-15T11:01:22;9.50;55.30
71563;DHT22;59391;52.504;13.438;2023-02-15T11:04:29;9.80;55.20
71563;DHT22;59391;52.504;13.438;2023-02-15T11:07:33;10.20;52.90
71563;DHT22;59391;52.504;13.438;2023-02-15T11:13:04;10.90;51.40
71563;DHT22;59391;52.504;13.438;2023-02-15T11:15:38;11.20;50.80
71563;DHT22;59391;52.504;13.438;2023-02-15T11:18:31;11.50;49.00
71563;DHT22;59391;52.504;13.438;2023-02-15T11:21:01;11.80;47.30
71563;DHT22;59391;52.504;13.438;2023-02-15T11:23:28;12.10;47.40
71563;DHT22;59391;52.504;13.438;2023-02-15T11:26:09;12.20;45.90
71563;DHT22;59391;52.504;13.438;2023-02-15T11:28:45;12.20;46.20
71563;DHT22;59391;52.504;13.438;2023-02-15T11:31:21;12.30;46.70
71563;DHT22;59391;52.504;13.438;2023-02-15T11:33:53;12.50;46.80
71563;DHT22;59391;52.504;13.438;2023-02-15T11:36:34;12.70;46.30
71563;DHT22;59391;52.504;13.438;2023-02-15T11:39:16;13.00;44.80
71563;DHT22;59391;52.504;13.438;2023-02-15T11:41:55;13.20;44.40
71563;DHT22;59391;52.504;13.438;2023-02-15T11:44:36;13.50;43.50
71563;DHT22;59391;52.504;13.438;2023-02-15T11:47:11;13.70;44.00
71563;DHT22;59391;52.504;13.438;2023-02-15T11:49:37;13.90;43.40
71563;DHT22;59391;52.504;13.438;2023-02-15T11:52:12;14.00;42.80
71563;DHT22;59391;52.504;13.438;2023-02-15T11:54:43;14.30;42.90
71563;DHT22;59391;52.504;13.438;2023-02-15T11:57:23;14.50;43.40
71563;DHT22;59391;52.504;13.438;2023-02-15T12:02:45;15.00;43.20
71563;DHT22;59391;52.504;13.438;2023-02-15T12:05:19;15.40;42.10
71563;DHT22;59391;52.504;13.438;2023-02-15T12:07:58;15.80;40.80
71563;DHT22;59391;52.504;13.438;2023-02-15T12:10:32;16.10;40.20
71563;DHT22;59391;52.504;13.438;2023-02-15T12:13:14;16.50;39.40
71563;DHT22;59391;52.504;13.438;2023-02-15T12:15:44;16.80;38.60
71563;DHT22;59391;52.504;13.438;2023-02-15T12:18:24;17.00;38.60
71563;DHT22;59391;52.504;13.438;2023-02-15T12:21:06;17.20;38.10
71563;DHT22;59391;52.504;13.438;2023-02-15T12:23:39;17.40;37.60
71563;DHT22;59391;52.504;13.438;2023-02-15T12:26:09;17.60;37.20
71563;DHT22;59391;52.504;13.438;2023-02-15T12:28:39;17.80;37.10
71563;DHT22;59391;52.504;13.438;2023-02-15T12:31:44;17.90;36.60
71563;DHT22;59391;52.504;13.438;2023-02-15T12:34:25;18.00;36.70
71563;DHT22;59391;52.504;13.438;2023-02-15T12:36:57;18.10;36.50
71563;DHT22;59391;52.504;13.438;2023-02-15T12:39:31;18.30;36.40
71563;DHT22;59391;52.504;13.438;2023-02-15T12:42:01;18.50;35.90
71563;DHT22;59391;52.504;13.438;2023-02-15T12:44:33;18.60;36.30
71563;DHT22;59391;52.504;13.438;2023-02-15T12:47:04;18.80;35.50
71563;DHT22;59391;52.504;13.438;2023-02-15T12:49:36;19.00;35.60
71563;DHT22;59391;52.504;13.438;2023-02-15T12:52:05;19.10;35.00
71563;DHT22;59391;52.504;13.438;2023-02-15T12:54:49;19.20;35.10
71563;DHT22;59391;52.504;13.438;2023-02-15T12:57:31;19.30;35.00
71563;DHT22;59391;52.504;13.438;2023-02-15T13:02:58;19.40;34.40
71563;DHT22;59391;52.504;13.438;2023-02-15T13:05:32;19.50;34.60
71563;DHT22;59391;52.504;13.438;2023-02-15T13:11:06;19.70;34.50
71563;DHT22;59391;52.504;13.438;2023-02-15T13:13:51;19.80;34.90
71563;DHT22;59391;52.504;13.438;2023-02-15T13:16:31;20.10;34.90
71563;DHT22;59391;52.504;13.438;2023-02-15T13:19:10;20.30;33.80
71563;DHT22;59391;52.504;13.438;2023-02-15T13:21:42;20.60;33.40
71563;DHT22;59391;52.504;13.438;2023-02-15T13:26:49;20.90;33.30
71563;DHT22;59391;52.504;13.438;2023-02-15T13:29:27;21.00;32.30
71563;DHT22;59391;52.504;13.438;2023-02-15T13:31:56;20.90;32.10
71563;DHT22;59391;52.504;13.438;2023-02-15T13:34:28;20.70;32.90
71563;DHT22;59391;52.504;13.438;2023-02-15T13:37:14;20.40;33.00
71563;DHT22;59391;52.504;13.438;2023-02-15T13:39:49;20.00;33.50
71563;DHT22;59391;52.504;13.438;2023-02-15T13:42:40;19.80;33.90
71563;DHT22;59391;52.504;13.438;2023-02-15T13:45:34;19.60;34.40
71563;DHT22;59391;52.504;13.438;2023-02-15T13:48:39;19.50;35.30
71563;DHT22;59391;52.504;13.438;2023-02-15T13:54:45;19.60;34.80
71563;DHT22;59391;52.504;13.438;2023-02-15T14:00:56;19.70;34.60
71563;DHT22;59391;52.504;13.438;2023-02-15T14:13:34;19.60;35.20
71563;DHT22;59391;52.504;13.438;2023-02-15T14:19:53;19.30;35.20
71563;DHT22;59391;52.504;13.438;2023-02-15T14:22:52;19.30;35.40
71563;DHT22;59391;52.504;13.438;2023-02-15T14:25:59;19.40;35.30
71563;DHT22;59391;52.504;13.438;2023-02-15T14:31:28;19.60;35.50
71563;DHT22;59391;52.504;13.438;2023-02-15T14:33:59;19.70;35.00
71563;DHT22;59391;52.504;13.438;2023-02-15T14:36:27;19.70;35.00
71563;DHT22;59391;52.504;13.438;2023-02-15T14:39:08;19.70;35.10
71563;DHT22;59391;52.504;13.438;2023-02-15T14:45:49;19.70;35.30
71563;DHT22;59391;52.504;13.438;2023-02-15T14:48:33;19.80;35.10
71563;DHT22;59391;52.504;13.438;2023-02-15T14:51:05;19.80;34.90
71563;DHT22;59391;52.504;13.438;2023-02-15T14:56:19;19.70;35.30
71563;DHT22;59391;52.504;13.438;2023-02-15T15:01:15;19.50;35.30
71563;DHT22;59391;52.504;13.438;2023-02-15T15:03:53;19.30;35.60
71563;DHT22;59391;52.504;13.438;2023-02-15T15:06:29;19.20;36.10
71563;DHT22;59391;52.504;13.438;2023-02-15T15:09:28;19.00;36.10
71563;DHT22;59391;52.504;13.438;2023-02-15T15:14:53;18.70;36.40
71563;DHT22;59391;52.504;13.438;2023-02-15T15:25:48;18.10;37.60
71563;DHT22;59391;52.504;13.438;2023-02-15T15:34:33;17.30;38.70
71563;DHT22;59391;52.504;13.438;2023-02-15T15:40:41;16.70;39.70
71563;DHT22;59391;52.504;13.438;2023-02-15T15:43:32;16.50;40.20
71563;DHT22;59391;52.504;13.438;2023-02-15T15:46:24;16.20;40.60
71563;DHT22;59391;52.504;13.438;2023-02-15T15:49:15;16.00;41.50
71563;DHT22;59391;52.504;13.438;2023-02-15T15:51:43;15.80;41.60
71563;DHT22;59391;52.504;13.438;2023-02-15T15:56:51;15.40;42.40
71563;DHT22;59391;52.504;13.438;2023-02-15T15:59:23;15.20;42.80
71563;DHT22;59391;52.504;13.438;2023-02-15T16:01:52;15.00;43.10
71563;DHT22;59391;52.504;13.438;2023-02-15T16:04:32;14.90;43.40
71563;DHT22;59391;52.504;13.438;2023-02-15T16:09:58;14.40;44.30
71563;DHT22;59391;52.504;13.438;2023-02-15T16:12:33;14.30;44.60
71563;DHT22;59391;52.504;13.438;2023-02-15T16:15:16;14.10;44.90
71563;DHT22;59391;52.504;13.438;2023-02-15T16:17:47;13.90;45.40
71563;DHT22;59391;52.504;13.438;2023-02-15T16:20:23;13.80;45.60
71563;DHT22;59391;52.504;13.438;2023-02-15T16:26:46;13.50;46.70
71563;DHT22;59391;52.504;13.438;2023-02-15T16:29:16;13.30;46.80
71563;DHT22;59391;52.504;13.438;2023-02-15T16:32:03;13.20;47.20
71563;DHT22;59391;52.504;13.438;2023-02-15T16:34:31;13.00;47.70
71563;DHT22;59391;52.504;13.438;2023-02-15T16:37:17;12.90;47.90
71563;DHT22;59391;52.504;13.438;2023-02-15T16:39:45;12.80;47.90
71563;DHT22;59391;52.504;13.438;2023-02-15T16:42:14;12.70;48.30
71563;DHT22;59391;52.504;13.438;2023-02-15T16:44:41;12.60;48.50
71563;DHT22;59391;52.504;13.438;2023-02-15T16:47:17;12.50;48.70
71563;DHT22;59391;52.504;13.438;2023-02-15T16:49:54;12.40;49.20
71563;DHT22;59391;52.504;13.438;2023-02-15T16:52:24;12.30;49.40
71563;DHT22;59391;52.504;13.438;2023-02-15T16:55:03;12.20;49.70
71563;DHT22;59391;52.504;13.438;2023-02-15T16:57:36;12.10;49.90
71563;DHT22;59391;52.504;13.438;2023-02-15T17:00:06;12.00;50.20
71563;DHT22;59391;52.504;13.438;2023-02-15T17:03:02;11.90;50.30
71563;DHT22;59391;52.504;13.438;2023-02-15T17:05:40;11.80;50.80
71563;DHT22;59391;52.504;13.438;2023-02-15T17:08:16;11.80;50.70
71563;DHT22;59391;52.504;13.438;2023-02-15T17:13:24;11.60;51.00
71563;DHT22;59391;52.504;13.438;2023-02-15T17:18:48;11.50;51.60
71563;DHT22;59391;52.504;13.438;2023-02-15T17:21:20;11.40;51.60
71563;DHT22;59391;52.504;13.438;2023-02-15T17:23:51;11.40;52.10
71563;DHT22;59391;52.504;13.438;2023-02-15T17:26:24;11.30;52.50
71563;DHT22;59391;52.504;13.438;2023-02-15T17:28:58;11.20;52.50
71563;DHT22;59391;52.504;13.438;2023-02-15T17:31:31;11.10;52.80
71563;DHT22;59391;52.504;13.438;2023-02-15T17:33:59;11.10;53.00
71563;DHT22;59391;52.504;13.438;2023-02-15T17:36:28;11.00;53.30
71563;DHT22;59391;52.504;13.438;2023-02-15T17:41:52;10.90;53.60
71563;DHT22;59391;52.504;13.438;2023-02-15T17:44:18;10.80;53.90
71563;DHT22;59391;52.504;13.438;2023-02-15T17:46:44;10.70;54.20
71563;DHT22;59391;52.504;13.438;2023-02-15T17:49:26;10.70;54.30
71563;DHT22;59391;52.504;13.438;2023-02-15T17:52:00;10.60;54.90
71563;DHT22;59391;52.504;13.438;2023-02-15T17:54:26;10.60;54.80
71563;DHT22;59391;52.504;13.438;2023-02-15T17:57:12;10.50;54.80
71563;DHT22;59391;52.504;13.438;2023-02-15T17:59:40;10.50;54.90
71563;DHT22;59391;52.504;13.438;2023-02-15T18:02:33;10.40;55.10
71563;DHT22;59391;52.504;13.438;2023-02-15T18:05:18;10.40;55.60
71563;DHT22;59391;52.504;13.438;2023-02-15T18:08:03;10.30;55.80
71563;DHT22;59391;52.504;13.438;2023-02-15T18:10:48;10.20;55.90
71563;DHT22;59391;52.504;13.438;2023-02-15T18:13:32;10.20;56.20
71563;DHT22;59391;52.504;13.438;2023-02-15T18:15:58;10.10;56.30
71563;DHT22;59391;52.504;13.438;2023-02-15T18:18:24;10.00;56.60
71563;DHT22;59391;52.504;13.438;2023-02-15T18:20:50;10.00;56.80
71563;DHT22;59391;52.504;13.438;2023-02-15T18:23:16;9.90;56.70